Time;durP1;ratioP1;P1;durP2;ratioP2;P2;SDS_P1;SDS_P2;PMS_P1;PMS_P2;Temp;Humidity;BMP_temperature;BMP_pressure;BME280_temperature;BME280_humidity;BME280_pressure;Samples;Min_cycle;Max_cycle;Signal;HPM_P1;HPM_P2
2024/02/18 00:00:01;;;;;;;39.90;22.88;;;;;;;2.87;100.00;97491.59;2091129;28;20048;-57
2024/02/18 00:01:02;;;;;;;37.78;21.95;;;;;;;2.86;100.00;97491.56;2091137;28;20036;-57
2024/02/18 00:02:03;;;;;;;39.17;22.02;;;;;;;2.84;100.00;97490.72;2091196;28;20044;-57
2024/02/18 00:03:04;;;;;;;37.58;22.00;;;;;;;2.85;100.00;97498.41;2089945;28;20049;-57
2024/02/18 00:04:06;;;;;;;38.50;22.88;;;;;;;2.83;100.00;97491.56;2090235;28;20040;-57
2024/02/18 00:05:08;;;;;;;40.83;22.80;;;;;;;2.78;100.00;97499.25;2097936;28;20076;-57
2024/02/18 00:06:09;;;;;;;42.00;22.55;;;;;;;2.97;100.00;97491.69;2091208;28;20048;-57
2024/02/18 00:07:10;;;;;;;32.65;19.17;;;;;;;2.90;100.00;97493.31;2091261;28;20056;-57
2024/02/18 00:08:11;;;;;;;31.05;18.73;;;;;;;2.88;100.00;97489.88;2091184;28;20485;-57
2024/02/18 00:09:12;;;;;;;36.17;20.25;;;;;;;2.87;100.00;97494.16;2090892;28;20037;-57
2024/02/18 00:10:13;;;;;;;33.83;19.55;;;;;;;2.88;100.00;97493.31;2091099;28;20049;-57
2024/02/18 00:11:15;;;;;;;34.03;20.45;;;;;;;2.85;100.00;97495.00;2091207;28;20041;-57
2024/02/18 00:12:17;;;;;;;35.97;20.45;;;;;;;2.81;100.00;97494.13;2091105;28;20456;-57
2024/02/18 00:13:18;;;;;;;33.58;19.50;;;;;;;2.69;100.00;97499.16;2090955;28;20040;-57
2024/02/18 00:14:19;;;;;;;33.67;18.70;;;;;;;2.53;100.00;97495.59;2091045;28;20049;-57
2024/02/18 00:15:22;;;;;;;33.40;20.25;;;;;;;2.47;100.00;97503.25;2091033;28;20045;-57
2024/02/18 00:16:23;;;;;;;38.47;20.27;;;;;;;2.47;100.00;97495.56;2091254;28;20064;-57
2024/02/18 00:17:24;;;;;;;34.97;20.67;;;;;;;2.50;100.00;97497.28;2091102;28;20040;-57
2024/02/18 00:18:25;;;;;;;36.22;21.63;;;;;;;2.42;100.00;97499.78;2090985;28;20512;-57
2024/02/18 00:19:26;;;;;;;34.78;21.00;;;;;;;2.38;100.00;97495.50;2090815;28;20048;-58
2024/02/18 00:20:27;;;;;;;39.65;22.55;;;;;;;2.39;100.00;97503.19;2091108;28;20055;-57
2024/02/18 00:21:29;;;;;;;36.92;22.38;;;;;;;2.39;100.00;97499.75;2091677;28;20481;-57
2024/02/18 00:22:30;;;;;;;40.38;22.55;;;;;;;2.43;100.00;97501.50;2090945;28;20045;-57
2024/02/18 00:23:31;;;;;;;40.17;22.77;;;;;;;2.43;100.00;97506.63;2090988;28;20052;-57
2024/02/18 00:24:32;;;;;;;42.47;22.88;;;;;;;2.50;100.00;97505.00;2090985;28;20040;-57
2024/02/18 00:25:33;;;;;;;36.63;22.00;;;;;;;2.60;100.00;97505.06;2090172;28;20060;-57
2024/02/18 00:26:37;;;;;;;37.70;21.75;;;;;;;2.59;100.00;97503.38;2090551;28;20045;-57
2024/02/18 00:27:38;;;;;;;43.35;21.33;;;;;;;2.58;100.00;97503.34;2090047;28;20052;-57
2024/02/18 00:28:39;;;;;;;38.33;22.13;;;;;;;2.52;100.00;97504.16;2090986;28;20057;-57
2024/02/18 00:29:40;;;;;;;39.08;20.92;;;;;;;2.45;100.00;97502.38;2090955;28;20504;-57
2024/02/18 00:30:42;;;;;;;44.97;22.70;;;;;;;2.39;100.00;97500.63;2091034;28;20032;-57
2024/02/18 00:31:43;;;;;;;36.15;21.63;;;;;;;2.39;100.00;97502.34;2091037;28;20045;-57
2024/02/18 00:32:44;;;;;;;55.70;24.77;;;;;;;2.43;100.00;97501.50;2090732;28;20386;-57
2024/02/18 00:33:45;;;;;;;39.28;22.67;;;;;;;2.41;100.00;97498.94;2091214;28;20052;-57
2024/02/18 00:34:47;;;;;;;40.88;21.80;;;;;;;2.33;100.00;97500.56;2091129;28;20056;-57
2024/02/18 00:35:48;;;;;;;40.70;21.85;;;;;;;2.27;100.00;97495.38;2090813;28;20049;-57
2024/02/18 00:36:49;;;;;;;41.03;24.20;;;;;;;2.21;100.00;97495.31;2090853;28;20041;-57
2024/02/18 00:37:50;;;;;;;42.88;24.33;;;;;;;2.21;100.00;97490.19;2090336;28;20076;-57
2024/02/18 00:38:51;;;;;;;40.88;24.40;;;;;;;2.20;100.00;97502.16;2090932;28;20040;-57
2024/02/18 00:39:52;;;;;;;42.78;24.92;;;;;;;2.18;100.00;97490.16;2090874;28;20135;-57
2024/02/18 00:40:54;;;;;;;41.78;24.70;;;;;;;2.18;100.00;97493.59;2090843;28;20033;-57
2024/02/18 00:41:55;;;;;;;40.08;23.80;;;;;;;2.24;100.00;97497.91;2090845;28;20075;-57
2024/02/18 00:42:56;;;;;;;40.25;24.88;;;;;;;2.27;100.00;97490.25;2091052;28;20396;-57
2024/02/18 00:43:57;;;;;;;41.40;24.60;;;;;;;2.24;100.00;97494.50;2091012;28;20029;-57
2024/02/18 00:44:58;;;;;;;46.80;26.38;;;;;;;2.23;100.00;97495.34;2090841;28;20053;-57
2024/02/18 00:45:59;;;;;;;40.92;24.75;;;;;;;2.23;100.00;97496.19;2091016;28;20397;-57
2024/02/18 00:47:00;;;;;;;39.65;23.77;;;;;;;2.23;100.00;97493.63;2090752;28;20033;-57
2024/02/18 00:48:01;;;;;;;42.83;25.63;;;;;;;2.28;100.00;97497.09;2090782;28;20044;-57
2024/02/18 00:49:03;;;;;;;48.78;26.67;;;;;;;2.24;100.00;97487.66;2091078;28;20056;-57
2024/02/18 00:50:04;;;;;;;43.38;23.55;;;;;;;2.17;100.00;97501.28;2090793;28;20029;-61
2024/02/18 00:51:05;;;;;;;43.83;25.00;;;;;;;2.11;100.00;97498.63;2090868;28;20366;-57
2024/02/18 00:52:06;;;;;;;45.42;25.17;;;;;;;2.14;100.00;97494.41;2090861;28;20033;-57
2024/02/18 00:53:08;;;;;;;45.85;27.30;;;;;;;2.13;100.00;97502.06;2090785;28;20045;-57
2024/02/18 00:54:09;;;;;;;43.35;24.70;;;;;;;2.09;100.00;97498.63;2090700;28;20056;-57
2024/02/18 00:55:10;;;;;;;46.58;25.65;;;;;;;2.14;100.00;97491.84;2090476;28;20045;-58
2024/02/18 00:56:11;;;;;;;44.25;25.38;;;;;;;2.11;100.00;97496.94;2090821;28;20041;-57
2024/02/18 00:57:12;;;;;;;47.63;26.38;;;;;;;2.12;100.00;97495.25;2090398;28;20044;-58
2024/02/18 00:58:13;;;;;;;46.05;26.38;;;;;;;2.10;100.00;97496.94;2090693;28;20055;-58
2024/02/18 00:59:14;;;;;;;47.67;28.00;;;;;;;2.16;100.00;97496.97;2091005;28;20037;-57
2024/02/18 01:00:16;;;;;;;43.88;26.92;;;;;;;2.14;100.00;97499.53;2090777;28;20049;-57
2024/02/18 01:01:17;;;;;;;49.13;28.00;;;;;;;2.15;100.00;97501.25;2091066;28;20045;-57
2024/02/18 01:02:18;;;;;;;49.80;26.92;;;;;;;2.13;100.00;97500.38;2090487;28;20044;-57
2024/02/18 01:03:19;;;;;;;48.95;27.92;;;;;;;2.13;100.00;97504.63;2090706;28;20413;-57
2024/02/18 01:04:20;;;;;;;53.55;27.75;;;;;;;2.06;100.00;97502.84;2090643;28;20032;-57
2024/02/18 01:05:21;;;;;;;51.67;28.77;;;;;;;2.05;100.00;97502.00;2090918;28;20048;-57
2024/02/18 01:06:22;;;;;;;46.35;26.42;;;;;;;2.09;100.00;97508.03;2090720;28;20424;-57
2024/02/18 01:07:23;;;;;;;48.70;27.73;;;;;;;2.06;100.00;97496.03;2091015;28;20052;-58
2024/02/18 01:08:24;;;;;;;55.95;28.88;;;;;;;2.03;100.00;97502.81;2090690;28;20053;-58
2024/02/18 01:09:25;;;;;;;49.35;28.27;;;;;;;2.03;100.00;97502.81;2090911;28;20048;-58
2024/02/18 01:10:27;;;;;;;51.90;28.38;;;;;;;1.95;100.00;97503.63;2090729;28;20481;-57
2024/02/18 01:11:29;;;;;;;46.50;27.02;;;;;;;1.87;100.00;97500.13;2090719;28;20037;-57
2024/02/18 01:12:30;;;;;;;50.10;26.75;;;;;;;1.81;100.00;97501.72;2090949;28;20045;-57
2024/02/18 01:13:32;;;;;;;48.88;27.35;;;;;;;1.86;100.00;97498.38;2090675;28;20060;-57
2024/02/18 01:14:33;;;;;;;50.17;27.70;;;;;;;2.02;100.00;97496.84;2090762;28;20045;-57
2024/02/18 01:15:34;;;;;;;53.92;28.55;;;;;;;2.02;100.00;97493.44;2091071;28;20060;-57
2024/02/18 01:16:36;;;;;;;55.40;29.42;;;;;;;1.95;100.00;97497.59;2091055;28;20052;-57
2024/02/18 01:17:37;;;;;;;51.03;26.35;;;;;;;1.84;100.00;97502.63;2090802;28;20559;-57
2024/02/18 01:18:42;;;;;;;46.92;27.25;;;;;;;1.77;100.00;97498.28;2090770;28;20032;-57
2024/02/18 01:19:43;;;;;;;46.72;25.63;;;;;;;1.74;100.00;97499.13;2090641;28;20048;-57
2024/02/18 01:20:44;;;;;;;45.40;27.55;;;;;;;1.68;100.00;97488.78;2090553;28;20496;-57
2024/02/18 01:21:45;;;;;;;46.50;27.10;;;;;;;1.75;100.00;97488.00;2091259;28;20048;-57
2024/02/18 01:22:46;;;;;;;49.88;26.60;;;;;;;1.84;100.00;97487.25;2090468;28;20045;-57
2024/02/18 01:23:47;;;;;;;51.95;28.35;;;;;;;1.92;100.00;97482.22;2090802;28;20440;-57
2024/02/18 01:24:48;;;;;;;51.40;28.05;;;;;;;2.03;100.00;97477.19;2090387;28;20045;-57
2024/02/18 01:25:50;;;;;;;60.25;28.13;;;;;;;2.11;100.00;97478.13;2090492;28;20045;-57
2024/02/18 01:26:51;;;;;;;45.13;26.77;;;;;;;2.07;100.00;97473.84;2090451;28;20052;-57
2024/02/18 01:27:52;;;;;;;48.65;29.48;;;;;;;2.01;100.00;97471.22;2090684;28;20029;-58
2024/02/18 01:28:53;;;;;;;53.35;30.27;;;;;;;2.08;100.00;97471.25;2090535;28;20033;-57
2024/02/18 01:29:54;;;;;;;54.58;28.88;;;;;;;2.11;100.00;97473.00;2090244;28;20045;-57
2024/02/18 01:30:55;;;;;;;45.78;24.02;;;;;;;2.13;100.00;97472.19;2090581;28;20055;-57
2024/02/18 01:31:56;;;;;;;60.80;32.35;;;;;;;2.18;100.00;97474.78;2089309;28;20509;-57
2024/02/18 01:32:58;;;;;;;51.20;29.50;;;;;;;2.23;100.00;97470.56;2089483;28;20044;-57
2024/02/18 01:33:59;;;;;;;51.13;28.73;;;;;;;2.25;100.00;97466.31;2090422;28;20045;-57
2024/02/18 01:35:00;;;;;;;45.35;27.25;;;;;;;2.22;100.00;97463.72;2090460;28;20036;-57
2024/02/18 01:36:01;;;;;;;47.50;29.45;;;;;;;2.19;100.00;97466.25;2090491;28;20037;-57
2024/02/18 01:37:02;;;;;;;45.35;28.85;;;;;;;2.16;100.00;97464.50;2090556;28;20044;-57
2024/02/18 01:38:03;;;;;;;57.65;32.80;;;;;;;2.23;100.00;97462.88;2090270;28;20044;-58
2024/02/18 01:39:04;;;;;;;59.08;34.65;;;;;;;2.24;100.00;97469.72;2090387;28;20056;-58
2024/02/18 01:40:06;;;;;;;56.30;32.53;;;;;;;2.23;100.00;97462.88;2090602;28;20117;-58
2024/02/18 01:41:07;;;;;;;52.15;31.45;;;;;;;2.28;100.00;97466.34;2090293;28;20048;-58
2024/02/18 01:42:08;;;;;;;61.53;34.97;;;;;;;2.17;100.00;97465.41;2090610;28;20044;-58
2024/02/18 01:43:09;;;;;;;52.38;30.33;;;;;;;2.18;100.00;97461.97;2089891;28;20509;-57
2024/02/18 01:44:10;;;;;;;54.92;29.27;;;;;;;2.08;100.00;97467.84;2089996;28;20057;-58
2024/02/18 01:45:12;;;;;;;48.83;28.92;;;;;;;1.98;100.00;97465.22;2090665;28;20036;-58
2024/02/18 01:46:13;;;;;;;47.50;28.83;;;;;;;1.90;100.00;97466.00;2090390;28;20041;-58
2024/02/18 01:47:14;;;;;;;52.17;30.92;;;;;;;1.93;100.00;97466.88;2090293;28;20485;-57
2024/02/18 01:48:15;;;;;;;55.22;32.35;;;;;;;1.93;100.00;97463.44;2089427;28;20059;-57
2024/02/18 01:49:17;;;;;;;52.03;29.48;;;;;;;1.88;100.00;97463.41;2089263;28;20049;-58
2024/02/18 01:50:18;;;;;;;55.03;31.90;;;;;;;1.74;100.00;97460.69;2081540;28;20053;-58
2024/02/18 01:51:22;;;;;;;51.92;29.30;;;;;;;1.63;100.00;97458.84;2065971;28;20435;-57
2024/02/18 01:52:23;;;;;;;49.75;29.42;;;;;;;1.57;100.00;97461.34;2073836;28;20049;-58
2024/02/18 01:53:24;;;;;;;51.83;28.55;;;;;;;1.52;100.00;97464.72;2081570;28;20045;-58
2024/02/18 01:54:31;;;;;;;48.78;29.02;;;;;;;1.49;100.00;97464.66;2089713;28;20040;-58
2024/02/18 01:55:32;;;;;;;50.58;28.67;;;;;;;1.44;100.00;97465.44;2089593;28;20174;-57
2024/02/18 01:56:33;;;;;;;56.60;32.17;;;;;;;1.44;100.00;97461.19;2089270;28;20049;-57
2024/02/18 01:57:34;;;;;;;60.03;32.53;;;;;;;1.48;100.00;97462.94;2089497;28;20048;-57
2024/02/18 01:58:35;;;;;;;60.20;32.95;;;;;;;1.50;100.00;97457.88;2097613;28;20055;-58
2024/02/18 01:59:37;;;;;;;52.35;28.92;;;;;;;1.48;100.00;97460.38;2090287;28;20484;-58
2024/02/18 02:00:39;;;;;;;58.95;31.95;;;;;;;1.52;100.00;97456.16;2089818;28;20532;-58
2024/02/18 02:01:40;;;;;;;59.67;32.70;;;;;;;1.39;100.00;97456.84;2081542;28;20497;-57
2024/02/18 02:02:45;;;;;;;62.08;32.55;;;;;;;1.34;100.00;97459.38;2080700;28;20037;-57
2024/02/18 02:03:46;;;;;;;47.83;28.35;;;;;;;1.31;100.00;97456.78;2089791;28;20098;-57
2024/02/18 02:04:47;;;;;;;59.30;32.35;;;;;;;1.27;100.00;97455.88;2089361;28;20049;-57
2024/02/18 02:05:48;;;;;;;59.00;32.40;;;;;;;1.35;100.00;97460.22;2088942;28;20057;-57
2024/02/18 02:06:50;;;;;;;50.83;29.73;;;;;;;1.31;100.00;97456.78;2089350;28;20049;-57
2024/02/18 02:07:51;;;;;;;56.25;31.38;;;;;;;1.28;100.00;97457.59;2090284;28;20037;-57
2024/02/18 02:08:52;;;;;;;57.33;32.15;;;;;;;1.31;100.00;97457.63;2090287;28;20041;-58
2024/02/18 02:09:53;;;;;;;59.55;31.67;;;;;;;1.35;100.00;97450.84;2082395;28;20041;-57
2024/02/18 02:10:55;;;;;;;53.83;31.90;;;;;;;1.36;100.00;97455.13;2082123;28;20410;-57
2024/02/18 02:11:56;;;;;;;58.75;31.00;;;;;;;1.37;100.00;97449.16;2090352;28;20041;-58
2024/02/18 02:12:57;;;;;;;60.42;32.22;;;;;;;1.43;100.00;97454.34;2090466;28;20047;-57
2024/02/18 02:13:58;;;;;;;61.03;33.55;;;;;;;1.52;100.00;97457.03;2089705;28;20033;-57
2024/02/18 02:14:59;;;;;;;59.97;33.63;;;;;;;1.60;100.00;97458.81;2089367;28;20049;-57
2024/02/18 02:16:01;;;;;;;65.88;36.40;;;;;;;1.62;100.00;97452.88;2090158;28;20489;-58
2024/02/18 02:17:02;;;;;;;61.00;33.80;;;;;;;1.65;100.00;97452.88;2089957;28;20041;-57
2024/02/18 02:18:04;;;;;;;67.22;36.67;;;;;;;1.66;100.00;97444.38;2089592;28;20033;-57
2024/02/18 02:19:05;;;;;;;57.00;33.67;;;;;;;1.69;100.00;97448.69;2089540;28;20041;-57
2024/02/18 02:20:10;;;;;;;65.57;36.22;;;;;;;1.72;100.00;97448.72;2090112;28;20409;-58
2024/02/18 02:21:11;;;;;;;67.68;34.63;;;;;;;1.73;100.00;97450.41;2090061;28;20056;-57
2024/02/18 02:22:12;;;;;;;62.28;35.58;;;;;;;1.74;100.00;97452.16;2089779;28;20055;-57
2024/02/18 02:23:13;;;;;;;60.25;35.33;;;;;;;1.79;100.00;97441.94;2090777;28;20401;-58
2024/02/18 02:24:14;;;;;;;74.15;36.90;;;;;;;1.81;100.00;97453.06;2090146;28;20041;-58
2024/02/18 02:25:16;;;;;;;68.88;37.75;;;;;;;1.81;100.00;97446.22;2089389;28;20036;-57
2024/02/18 02:26:17;;;;;;;63.17;34.40;;;;;;;1.83;100.00;97452.25;2089201;28;20049;-58
2024/02/18 02:27:20;;;;;;;64.03;36.03;;;;;;;1.86;100.00;97449.72;2089528;28;20041;-57
2024/02/18 02:28:25;;;;;;;65.85;36.17;;;;;;;1.87;100.00;97437.75;2081699;28;20477;-57
2024/02/18 02:29:27;;;;;;;62.28;33.35;;;;;;;1.87;100.00;97448.88;2089224;28;20057;-58
2024/02/18 02:30:28;;;;;;;54.90;32.55;;;;;;;1.88;100.00;97449.72;2097586;28;20055;-57
2024/02/18 02:31:29;;;;;;;57.65;32.88;;;;;;;1.90;100.00;97441.22;2097092;28;20060;-57
2024/02/18 02:32:31;;;;;;;60.42;33.00;;;;;;;1.92;100.00;97441.22;2089932;28;20049;-58
2024/02/18 02:33:32;;;;;;;59.60;32.75;;;;;;;2.04;100.00;97445.63;2090038;28;20057;-58
2024/02/18 02:34:34;;;;;;;62.92;33.83;;;;;;;2.05;100.00;97442.19;2090125;28;20408;-57
2024/02/18 02:35:37;;;;;;;63.28;34.97;;;;;;;2.06;100.00;97443.91;2090049;28;20048;-57
2024/02/18 02:36:38;;;;;;;58.72;32.88;;;;;;;2.10;100.00;97443.97;2089933;28;20053;-58
2024/02/18 02:37:39;;;;;;;59.70;33.65;;;;;;;2.12;100.00;97434.59;2089685;28;20049;-58
2024/02/18 02:38:41;;;;;;;64.57;34.50;;;;;;;2.11;100.00;97435.44;2089616;28;20049;-58
2024/02/18 02:39:42;;;;;;;67.07;35.40;;;;;;;2.09;100.00;97439.69;2089384;28;20056;-58
2024/02/18 02:40:43;;;;;;;63.13;32.70;;;;;;;2.06;100.00;97442.22;2089620;28;20040;-57
2024/02/18 02:41:44;;;;;;;60.05;32.35;;;;;;;2.04;100.00;97431.09;2089842;28;20075;-58
2024/02/18 02:42:45;;;;;;;56.00;31.15;;;;;;;2.01;100.00;97430.22;2089810;28;20457;-57
2024/02/18 02:43:46;;;;;;;57.72;30.83;;;;;;;2.04;100.00;97438.78;2089752;28;20041;-58
2024/02/18 02:44:48;;;;;;;54.67;29.88;;;;;;;2.05;100.00;97437.94;2089847;28;20060;-57
2024/02/18 02:45:49;;;;;;;50.38;30.88;;;;;;;2.02;100.00;97431.94;2090097;28;20049;-57
2024/02/18 02:46:50;;;;;;;51.97;29.65;;;;;;;2.04;100.00;97435.38;2089729;28;20512;-57
2024/02/18 02:47:52;;;;;;;51.90;29.45;;;;;;;2.04;100.00;97435.38;2089971;28;20044;-57
2024/02/18 02:48:53;;;;;;;54.33;30.60;;;;;;;2.06;100.00;97436.22;2090128;28;20041;-58
2024/02/18 02:49:54;;;;;;;59.28;32.03;;;;;;;2.04;100.00;97431.09;2090020;28;20052;-58
2024/02/18 02:50:55;;;;;;;55.97;31.92;;;;;;;2.06;100.00;97439.66;2089967;28;20469;-57
2024/02/18 02:51:56;;;;;;;56.63;31.80;;;;;;;2.10;100.00;97440.53;2090111;28;20052;-57
2024/02/18 02:52:57;;;;;;;47.33;28.48;;;;;;;2.19;100.00;97438.94;2090157;28;20044;-58
2024/02/18 02:53:58;;;;;;;54.25;31.05;;;;;;;2.34;100.00;97442.47;2090120;28;20388;-57
2024/02/18 02:55:00;;;;;;;56.92;31.30;;;;;;;2.32;100.00;97442.44;2090368;28;20041;-58
2024/02/18 02:56:01;;;;;;;52.33;29.52;;;;;;;2.28;100.00;97438.16;2089991;28;20037;-58
2024/02/18 02:57:02;;;;;;;47.65;28.20;;;;;;;2.25;100.00;97437.28;2089908;28;20064;-58
2024/02/18 02:58:03;;;;;;;49.75;28.75;;;;;;;2.21;100.00;97437.22;2089922;28;20100;-57
2024/02/18 02:59:04;;;;;;;46.63;26.88;;;;;;;2.24;100.00;97438.09;2089305;28;20041;-58
2024/02/18 03:00:09;;;;;;;50.17;29.85;;;;;;;2.22;100.00;97432.97;2081558;28;20497;-58
2024/02/18 03:01:10;;;;;;;47.92;26.75;;;;;;;2.23;100.00;97438.94;2089601;28;20068;-58
2024/02/18 03:02:11;;;;;;;48.00;28.60;;;;;;;2.23;100.00;97436.41;2091070;28;20424;-58
2024/02/18 03:03:12;;;;;;;50.50;29.90;;;;;;;2.25;100.00;97437.28;2090999;28;20504;-58
2024/02/18 03:04:13;;;;;;;50.22;29.38;;;;;;;2.25;100.00;97433.00;2091593;28;20040;-58
2024/02/18 03:05:14;;;;;;;46.28;26.50;;;;;;;2.25;100.00;97439.84;2091777;28;20033;-58
2024/02/18 03:06:16;;;;;;;47.70;28.85;;;;;;;2.29;100.00;97439.84;2091847;28;20401;-58
2024/02/18 03:07:17;;;;;;;48.25;28.58;;;;;;;2.25;100.00;97440.69;2091498;28;20037;-58
2024/02/18 03:08:18;;;;;;;52.15;28.40;;;;;;;2.23;100.00;97437.25;2091663;28;20044;-58
2024/02/18 03:09:19;;;;;;;47.72;26.52;;;;;;;2.23;100.00;97441.53;2091637;28;20084;-57
2024/02/18 03:10:20;;;;;;;47.97;27.63;;;;;;;2.27;100.00;97443.25;2091502;28;20048;-57
2024/02/18 03:11:21;;;;;;;47.22;26.88;;;;;;;2.27;100.00;97438.13;2091647;28;20053;-57
2024/02/18 03:12:22;;;;;;;48.17;26.85;;;;;;;2.24;100.00;97441.50;2091601;28;20053;-58
2024/02/18 03:13:23;;;;;;;48.17;27.20;;;;;;;2.25;100.00;97440.69;2091765;28;20057;-58
2024/02/18 03:14:25;;;;;;;43.25;25.70;;;;;;;2.24;100.00;97441.50;2091514;28;20041;-57
2024/02/18 03:15:26;;;;;;;44.22;26.40;;;;;;;2.22;100.00;97440.66;2091665;28;20106;-58
2024/02/18 03:16:27;;;;;;;42.92;26.55;;;;;;;2.23;100.00;97439.81;2091463;28;20040;-57
2024/02/18 03:17:28;;;;;;;47.83;27.90;;;;;;;2.26;100.00;97439.81;2091338;28;20045;-57
2024/02/18 03:18:29;;;;;;;51.17;28.25;;;;;;;2.28;100.00;97442.41;2091809;28;20544;-57
2024/02/18 03:19:30;;;;;;;46.83;27.40;;;;;;;2.26;100.00;97441.53;2091500;28;20040;-58
2024/02/18 03:20:32;;;;;;;46.53;28.67;;;;;;;2.26;100.00;97434.69;2091470;28;20056;-57
2024/02/18 03:21:33;;;;;;;47.97;27.95;;;;;;;2.23;100.00;97434.69;2091552;28;20408;-57
2024/02/18 03:22:34;;;;;;;48.60;27.70;;;;;;;2.24;100.00;97438.94;2091438;28;20064;-57
2024/02/18 03:23:35;;;;;;;50.88;29.15;;;;;;;2.25;100.00;97435.56;2091512;28;20060;-57
2024/02/18 03:24:39;;;;;;;45.55;27.17;;;;;;;2.27;100.00;97438.97;2090936;28;20378;-57
2024/02/18 03:25:43;;;;;;;46.30;26.70;;;;;;;2.28;100.00;97438.16;2091480;28;20049;-57
2024/02/18 03:26:44;;;;;;;45.15;25.98;;;;;;;2.30;100.00;97438.13;2091431;28;20049;-57
2024/02/18 03:27:46;;;;;;;48.53;27.17;;;;;;;2.29;100.00;97437.28;2091394;28;20033;-57
2024/02/18 03:28:47;;;;;;;44.17;26.35;;;;;;;2.30;100.00;97441.59;2091552;28;20036;-57
2024/02/18 03:29:48;;;;;;;44.63;26.63;;;;;;;2.31;100.00;97435.59;2091363;28;20045;-57
2024/02/18 03:30:51;;;;;;;50.47;27.45;;;;;;;2.34;100.00;97435.63;2091466;28;20562;-57
2024/02/18 03:31:52;;;;;;;46.08;26.17;;;;;;;2.36;100.00;97436.50;2091210;28;20406;-57
2024/02/18 03:32:53;;;;;;;49.95;27.83;;;;;;;2.40;100.00;97434.81;2091426;28;20049;-57
2024/02/18 03:33:54;;;;;;;44.70;25.70;;;;;;;2.43;100.00;97439.97;2091519;28;20401;-57
2024/02/18 03:34:56;;;;;;;51.28;27.77;;;;;;;2.45;100.00;97433.13;2090754;28;20505;-57
2024/02/18 03:35:57;;;;;;;51.60;29.90;;;;;;;2.49;100.00;97434.91;2090693;28;20041;-57
2024/02/18 03:36:58;;;;;;;53.63;29.83;;;;;;;2.52;100.00;97434.06;2091326;28;20037;-57
2024/02/18 03:37:59;;;;;;;49.35;28.00;;;;;;;2.52;100.00;97440.03;2091017;28;20049;-57
2024/02/18 03:39:00;;;;;;;47.78;26.48;;;;;;;2.53;100.00;97433.19;2091350;28;20040;-57
2024/02/18 03:40:01;;;;;;;50.03;28.02;;;;;;;2.57;100.00;97434.97;2091598;28;20049;-57
2024/02/18 03:41:06;;;;;;;43.53;25.58;;;;;;;2.57;100.00;97427.25;2091269;28;20374;-57
2024/02/18 03:42:07;;;;;;;43.28;25.50;;;;;;;2.58;100.00;97426.41;2091259;28;20049;-57
2024/02/18 03:43:09;;;;;;;42.97;24.52;;;;;;;2.59;100.00;97430.66;2091316;28;20029;-57
2024/02/18 03:44:10;;;;;;;41.88;24.50;;;;;;;2.67;100.00;97428.16;2091405;28;20044;-57
2024/02/18 03:45:11;;;;;;;41.65;24.20;;;;;;;2.70;100.00;97428.19;2091458;28;20060;-57
2024/02/18 03:46:12;;;;;;;42.85;23.80;;;;;;;2.69;100.00;97426.47;2091331;28;20044;-57
2024/02/18 03:47:14;;;;;;;42.65;25.45;;;;;;;2.70;100.00;97425.63;2091140;28;20071;-57
2024/02/18 03:48:15;;;;;;;38.42;24.27;;;;;;;2.69;100.00;97422.19;2091053;28;20045;-57
2024/02/18 03:49:16;;;;;;;41.63;24.75;;;;;;;2.73;100.00;97423.94;2091459;28;20477;-57
2024/02/18 03:50:17;;;;;;;41.55;23.00;;;;;;;2.75;100.00;97423.94;2091386;28;20049;-57
2024/02/18 03:51:18;;;;;;;40.95;23.60;;;;;;;2.70;100.00;97429.06;2091268;28;20036;-56
2024/02/18 03:52:19;;;;;;;43.38;24.13;;;;;;;2.69;100.00;97423.91;2091389;28;20049;-57
2024/02/18 03:53:20;;;;;;;49.63;24.98;;;;;;;2.64;100.00;97422.16;2091297;28;20049;-57
2024/02/18 03:54:21;;;;;;;47.47;24.77;;;;;;;2.65;100.00;97423.91;2091036;28;20059;-57
2024/02/18 03:55:23;;;;;;;46.13;24.08;;;;;;;2.61;100.00;97421.28;2091297;28;20052;-57
2024/02/18 03:56:24;;;;;;;46.47;26.45;;;;;;;2.68;100.00;97420.50;2091179;28;20045;-57
2024/02/18 03:57:25;;;;;;;46.53;25.75;;;;;;;2.71;100.00;97430.78;2091060;28;20053;-57
2024/02/18 03:58:26;;;;;;;46.65;26.33;;;;;;;2.77;100.00;97429.94;2091581;28;20060;-57
2024/02/18 03:59:27;;;;;;;49.88;27.35;;;;;;;2.78;100.00;97421.38;2091082;28;20045;-57
2024/02/18 04:00:28;;;;;;;40.47;23.65;;;;;;;2.77;100.00;97430.81;2091249;28;20493;-58
2024/02/18 04:01:29;;;;;;;41.00;23.50;;;;;;;2.78;100.00;97421.38;2091123;28;20485;-57
2024/02/18 04:02:33;;;;;;;37.10;22.38;;;;;;;2.75;100.00;97423.94;2091172;28;20033;-57
2024/02/18 04:03:35;;;;;;;38.80;22.90;;;;;;;2.74;100.00;97420.53;2091143;28;20045;-57
2024/02/18 04:04:36;;;;;;;42.42;22.77;;;;;;;2.71;100.00;97423.06;2091194;28;20044;-57
2024/02/18 04:05:37;;;;;;;46.58;24.38;;;;;;;2.68;100.00;97423.06;2091405;28;20045;-57
2024/02/18 04:06:38;;;;;;;44.92;23.83;;;;;;;2.65;100.00;97420.47;2091134;28;20041;-57
2024/02/18 04:07:39;;;;;;;42.15;24.15;;;;;;;2.66;100.00;97422.19;2091544;28;20516;-57
2024/02/18 04:08:40;;;;;;;40.50;23.73;;;;;;;2.71;100.00;97420.50;2091046;28;20044;-57
2024/02/18 04:09:41;;;;;;;47.47;26.15;;;;;;;2.77;100.00;97427.38;2091551;28;20056;-58
2024/02/18 04:10:42;;;;;;;46.92;26.85;;;;;;;2.80;100.00;97428.25;2090884;28;20045;-58
2024/02/18 04:11:44;;;;;;;46.80;25.58;;;;;;;2.82;100.00;97412.88;2090971;28;20037;-57
2024/02/18 04:12:45;;;;;;;40.70;25.58;;;;;;;2.85;100.00;97413.75;2090017;28;20064;-57
2024/02/18 04:13:46;;;;;;;48.45;25.25;;;;;;;2.84;100.00;97426.59;2091084;28;20060;-58
2024/02/18 04:14:47;;;;;;;40.03;23.23;;;;;;;2.82;100.00;97415.44;2091321;28;20044;-57
2024/02/18 04:15:48;;;;;;;38.63;22.02;;;;;;;2.81;100.00;97421.44;2091157;28;20064;-57
2024/02/18 04:16:49;;;;;;;36.03;21.90;;;;;;;2.82;100.00;97424.00;2091140;28;20036;-58
2024/02/18 04:17:51;;;;;;;41.63;24.50;;;;;;;2.81;100.00;97417.16;2091048;28;20412;-58
2024/02/18 04:18:53;;;;;;;38.60;22.92;;;;;;;2.79;100.00;97418.84;2090994;28;20045;-57
2024/02/18 04:19:54;;;;;;;39.60;23.30;;;;;;;2.83;100.00;97428.28;2090757;28;20049;-57
2024/02/18 04:20:55;;;;;;;40.97;23.42;;;;;;;2.90;100.00;97416.34;2091890;28;20044;-57
2024/02/18 04:21:56;;;;;;;44.55;24.27;;;;;;;2.92;100.00;97418.94;2091089;28;20063;-57
2024/02/18 04:22:57;;;;;;;44.50;24.13;;;;;;;2.98;100.00;97424.09;2090680;28;20056;-58
2024/02/18 04:23:58;;;;;;;40.42;24.08;;;;;;;3.01;100.00;97419.81;2090266;28;20052;-57
2024/02/18 04:25:00;;;;;;;39.10;24.05;;;;;;;3.05;100.00;97426.69;2089769;28;20059;-57
2024/02/18 04:26:01;;;;;;;41.85;23.80;;;;;;;3.09;100.00;97419.88;2090975;28;20053;-57
2024/02/18 04:27:08;;;;;;;39.85;23.52;;;;;;;3.11;100.00;97419.88;2090943;28;20037;-58
2024/02/18 04:28:10;;;;;;;43.22;24.52;;;;;;;3.07;100.00;97424.13;2090777;28;20477;-57
2024/02/18 04:29:11;;;;;;;37.80;22.13;;;;;;;3.04;100.00;97424.13;2090988;28;20044;-57
2024/02/18 04:30:12;;;;;;;43.33;25.00;;;;;;;3.01;100.00;97417.25;2091126;28;20057;-57
2024/02/18 04:31:13;;;;;;;44.50;24.17;;;;;;;2.98;100.00;97418.97;2090592;28;20045;-57
2024/02/18 04:32:14;;;;;;;40.90;24.58;;;;;;;2.92;100.00;97414.66;2090936;28;20048;-57
2024/02/18 04:33:15;;;;;;;44.05;25.23;;;;;;;2.84;100.00;97412.03;2091035;28;20060;-57
2024/02/18 04:34:17;;;;;;;47.20;25.27;;;;;;;2.78;100.00;97413.69;2090961;28;20045;-57
2024/02/18 04:35:18;;;;;;;42.92;24.83;;;;;;;2.71;100.00;97417.09;2091192;28;20047;-57
2024/02/18 04:36:19;;;;;;;38.70;24.38;;;;;;;2.63;100.00;97414.47;2090998;28;20056;-57
2024/02/18 04:37:20;;;;;;;43.90;24.75;;;;;;;2.51;100.00;97406.69;2090641;28;20059;-59
2024/02/18 04:38:21;;;;;;;43.20;25.52;;;;;;;2.48;100.00;97411.78;2090900;28;20057;-57
2024/02/18 04:39:22;;;;;;;38.55;24.63;;;;;;;2.44;100.00;97413.50;2090857;28;20527;-57
2024/02/18 04:40:23;;;;;;;40.88;24.23;;;;;;;2.41;100.00;97404.06;2090851;28;20044;-57
2024/02/18 04:41:24;;;;;;;40.17;24.23;;;;;;;2.40;100.00;97411.72;2090839;28;20045;-57